Time;durP1;ratioP1;P1;durP2;ratioP2;P2;SDS_P1;SDS_P2;PMS_P1;PMS_P2;Temp;Humidity;BMP_temperature;BMP_pressure;BME280_temperature;BME280_humidity;BME280_pressure;Samples;Min_cycle;Max_cycle;Signal;HPM_P1;HPM_P2
2022/05/17 00:01:18;;;;;;;3.33;2.80;;;;;;;;;;6127237;23;20029;-77
2022/05/17 00:03:47;;;;;;;2.88;2.35;;;;;;;;;;6125566;23;20001;-77
2022/05/17 00:06:15;;;;;;;4.85;2.08;;;;;;;;;;6125913;23;20391;-77
2022/05/17 00:08:40;;;;;;;4.50;3.13;;;;;;;;;;6125982;23;20005;-77
2022/05/17 00:11:06;;;;;;;4.38;2.13;;;;;;;;;;6128545;23;20002;-77
2022/05/17 00:13:32;;;;;;;3.40;2.53;;;;;;;;;;6127423;23;20009;-78
2022/05/17 00:16:01;;;;;;;2.42;1.98;;;;;;;;;;6127636;23;20073;-77
2022/05/17 00:18:26;;;;;;;2.47;2.28;;;;;;;;;;6128705;23;20017;-77
2022/05/17 00:20:52;;;;;;;2.88;2.08;;;;;;;;;;6127307;23;20006;-77
2022/05/17 00:23:21;;;;;;;4.13;2.50;;;;;;;;;;6127750;23;20084;-77
2022/05/17 00:25:47;;;;;;;1.80;1.70;;;;;;;;;;6129348;23;20300;-77
2022/05/17 00:28:19;;;;;;;3.20;2.67;;;;;;;;;;6152183;23;20002;-77
2022/05/17 00:30:45;;;;;;;3.40;2.63;;;;;;;;;;6128910;23;20449;-77
2022/05/17 00:33:13;;;;;;;3.80;2.00;;;;;;;;;;6128740;23;20040;-77
2022/05/17 00:35:39;;;;;;;8.70;3.35;;;;;;;;;;6127265;23;20010;-77
2022/05/17 00:38:07;;;;;;;2.67;2.00;;;;;;;;;;6151810;23;20018;-76
2022/05/17 00:40:32;;;;;;;3.20;2.60;;;;;;;;;;6103244;23;20025;-77
2022/05/17 00:43:00;;;;;;;7.25;2.92;;;;;;;;;;6128147;23;20035;-77
2022/05/17 00:45:27;;;;;;;3.78;1.58;;;;;;;;;;6128224;23;20005;-77
2022/05/17 00:48:01;;;;;;;1.88;1.70;;;;;;;;;;6127407;23;19997;-77
2022/05/17 00:50:31;;;;;;;2.40;1.70;;;;;;;;;;6127460;23;20010;-77
2022/05/17 00:53:01;;;;;;;3.08;2.53;;;;;;;;;;6128661;23;20390;-76
2022/05/17 00:55:31;;;;;;;3.75;2.33;;;;;;;;;;6128287;23;20076;-77
2022/05/17 00:58:27;;;;;;;2.17;1.83;;;;;;;;;;6127213;23;20002;-77
2022/05/17 01:01:07;;;;;;;3.30;2.35;;;;;;;;;;6128563;23;20002;-77
2022/05/17 01:03:57;;;;;;;2.40;2.20;;;;;;;;;;6127052;23;20006;-78
2022/05/17 01:06:24;;;;;;;3.92;2.03;;;;;;;;;;6127247;23;19998;-77
2022/05/17 01:08:49;;;;;;;2.90;1.92;;;;;;;;;;6127506;23;20076;-77
2022/05/17 01:11:17;;;;;;;2.85;2.53;;;;;;;;;;6127932;23;20030;-78
2022/05/17 01:16:32;;;;;;;3.72;2.13;;;;;;;;;;6128406;23;20078;-77
2022/05/17 01:18:58;;;;;;;4.95;2.50;;;;;;;;;;6128383;23;20302;-75
2022/05/17 01:21:25;;;;;;;3.33;1.90;;;;;;;;;;6126311;23;20002;-76
2022/05/17 01:23:50;;;;;;;6.65;2.70;;;;;;;;;;6126651;23;20002;-76
2022/05/17 01:26:20;;;;;;;2.08;1.73;;;;;;;;;;6127869;23;20005;-77
2022/05/17 01:28:46;;;;;;;2.60;2.00;;;;;;;;;;6128435;23;20080;-78
2022/05/17 01:31:14;;;;;;;3.60;1.92;;;;;;;;;;6127863;23;20092;-76
2022/05/17 01:33:39;;;;;;;2.00;1.67;;;;;;;;;;6102469;23;20009;-77
2022/05/17 01:36:09;;;;;;;2.30;2.05;;;;;;;;;;6128112;23;20386;-77
2022/05/17 01:38:36;;;;;;;2.28;2.05;;;;;;;;;;6127982;23;20010;-77
2022/05/17 01:41:03;;;;;;;2.42;1.55;;;;;;;;;;6127677;23;20006;-77
2022/05/17 01:43:29;;;;;;;13.18;2.67;;;;;;;;;;6128347;23;20006;-77
2022/05/17 01:45:55;;;;;;;2.80;2.35;;;;;;;;;;6127662;23;20017;-76
2022/05/17 01:48:20;;;;;;;1.88;1.77;;;;;;;;;;6126797;23;19994;-77
2022/05/17 01:50:46;;;;;;;2.58;2.13;;;;;;;;;;6126627;23;20013;-77
2022/05/17 01:53:11;;;;;;;2.70;2.33;;;;;;;;;;6128144;23;20016;-77
2022/05/17 01:55:37;;;;;;;2.85;2.10;;;;;;;;;;6126771;23;20029;-76
2022/05/17 01:58:03;;;;;;;4.45;2.40;;;;;;;;;;6126238;23;20414;-77
2022/05/17 02:00:28;;;;;;;2.85;2.30;;;;;;;;;;6126306;23;20006;-77
2022/05/17 02:02:54;;;;;;;1.42;1.33;;;;;;;;;;6127865;23;20009;-77
2022/05/17 02:05:21;;;;;;;1.55;1.45;;;;;;;;;;6127589;23;20008;-76
2022/05/17 02:07:50;;;;;;;2.05;1.33;;;;;;;;;;6127417;23;20371;-77
2022/05/17 02:10:25;;;;;;;5.22;1.90;;;;;;;;;;6127615;23;20005;-76
2022/05/17 02:12:51;;;;;;;6.25;2.13;;;;;;;;;;6150205;23;20044;-77
2022/05/17 02:15:16;;;;;;;1.90;1.30;;;;;;;;;;6127587;23;20032;-77
2022/05/17 02:17:44;;;;;;;2.30;1.90;;;;;;;;;;6126171;23;20417;-77
2022/05/17 02:20:10;;;;;;;2.90;2.22;;;;;;;;;;6127392;23;20006;-77
2022/05/17 02:22:40;;;;;;;4.25;2.65;;;;;;;;;;6126709;23;20012;-77
2022/05/17 02:25:07;;;;;;;3.75;2.00;;;;;;;;;;6127611;23;20402;-78
2022/05/17 02:27:34;;;;;;;2.03;1.67;;;;;;;;;;6127385;23;20006;-77
2022/05/17 02:30:00;;;;;;;2.58;1.92;;;;;;;;;;6127726;23;20006;-76
2022/05/17 02:32:25;;;;;;;2.22;1.88;;;;;;;;;;6101722;23;20044;-77
2022/05/17 02:34:51;;;;;;;1.10;0.95;;;;;;;;;;6127793;23;20005;-77
2022/05/17 02:37:16;;;;;;;1.73;1.63;;;;;;;;;;6127440;23;20069;-77
2022/05/17 02:39:42;;;;;;;2.63;1.23;;;;;;;;;;6127471;23;20048;-75
2022/05/17 02:42:10;;;;;;;1.55;1.45;;;;;;;;;;6126102;23;20012;-75
2022/05/17 02:44:35;;;;;;;1.38;1.15;;;;;;;;;;6127690;23;20009;-76
2022/05/17 02:47:01;;;;;;;2.15;1.35;;;;;;;;;;6101975;23;20006;-76
2022/05/17 02:49:26;;;;;;;1.55;0.85;;;;;;;;;;6126913;23;19997;-75
2022/05/17 02:51:51;;;;;;;4.22;2.08;;;;;;;;;;6127191;23;20006;-76
2022/05/17 02:54:19;;;;;;;0.77;0.73;;;;;;;;;;6126263;23;20001;-76
2022/05/17 02:56:44;;;;;;;1.85;1.75;;;;;;;;;;6127551;23;20306;-81
2022/05/17 02:59:12;;;;;;;3.33;1.40;;;;;;;;;;6127299;23;20017;-81
2022/05/17 03:01:37;;;;;;;3.17;2.03;;;;;;;;;;6126062;23;20017;-81
2022/05/17 03:04:05;;;;;;;0.90;0.90;;;;;;;;;;6127265;23;20006;-77
2022/05/17 03:06:30;;;;;;;2.20;1.95;;;;;;;;;;6126990;23;20499;-82
2022/05/17 03:08:58;;;;;;;0.90;0.90;;;;;;;;;;6127217;23;19997;-80
2022/05/17 03:11:25;;;;;;;1.77;1.27;;;;;;;;;;6127130;23;20013;-79
2022/05/17 03:13:50;;;;;;;17.73;3.80;;;;;;;;;;6125904;23;20354;-81
2022/05/17 03:16:16;;;;;;;1.10;1.10;;;;;;;;;;6126912;23;20001;-81
2022/05/17 03:18:41;;;;;;;1.73;1.50;;;;;;;;;;6126879;23;20006;-80
2022/05/17 03:21:07;;;;;;;1.70;1.60;;;;;;;;;;6125313;23;20044;-82
2022/05/17 03:23:36;;;;;;;2.55;1.70;;;;;;;;;;6126550;23;20001;-81
2022/05/17 03:26:02;;;;;;;2.25;1.38;;;;;;;;;;6127231;23;20025;-81
2022/05/17 03:28:27;;;;;;;0.82;0.75;;;;;;;;;;6127452;23;20001;-80
2022/05/17 03:30:52;;;;;;;2.67;1.70;;;;;;;;;;6127361;23;20006;-81
2022/05/17 03:33:22;;;;;;;1.60;1.50;;;;;;;;;;6101544;23;19998;-80
2022/05/17 03:35:48;;;;;;;1.25;1.05;;;;;;;;;;6126001;23;20006;-82
2022/05/17 03:38:13;;;;;;;1.73;1.42;;;;;;;;;;6127203;23;20002;-81
2022/05/17 03:40:41;;;;;;;1.77;1.55;;;;;;;;;;6127434;23;19997;-81
2022/05/17 03:43:06;;;;;;;2.00;1.13;;;;;;;;;;6127421;23;20002;-82
2022/05/17 03:45:32;;;;;;;1.90;1.35;;;;;;;;;;6107237;23;20061;-81
2022/05/17 03:47:57;;;;;;;1.88;1.77;;;;;;;;;;6143686;23;20008;-80
2022/05/17 03:50:22;;;;;;;1.17;1.08;;;;;;;;;;6132186;23;20013;-82
2022/05/17 03:52:50;;;;;;;2.13;1.30;;;;;;;;;;6129684;23;20010;-82
2022/05/17 03:55:16;;;;;;;3.13;1.50;;;;;;;;;;6129306;23;20009;-82
2022/05/17 03:57:41;;;;;;;1.80;0.60;;;;;;;;;;6129229;23;20065;-82
2022/05/17 04:00:08;;;;;;;2.90;1.90;;;;;;;;;;6128034;23;20006;-82
2022/05/17 04:02:36;;;;;;;1.05;0.93;;;;;;;;;;6127974;23;20002;-80
2022/05/17 04:05:04;;;;;;;1.30;1.15;;;;;;;;;;6129335;23;20002;-81
2022/05/17 04:07:30;;;;;;;1.38;1.27;;;;;;;;;;6103658;23;20056;-82
2022/05/17 04:09:57;;;;;;;1.52;1.42;;;;;;;;;;6129427;23;20409;-82
2022/05/17 04:12:23;;;;;;;2.72;1.67;;;;;;;;;;6128724;23;20005;-81
2022/05/17 04:14:50;;;;;;;3.33;1.73;;;;;;;;;;6129530;23;20064;-82
2022/05/17 04:17:18;;;;;;;0.52;0.52;;;;;;;;;;6127712;23;20010;-82
2022/05/17 04:19:48;;;;;;;1.95;1.20;;;;;;;;;;6129158;23;20037;-83
2022/05/17 04:22:13;;;;;;;0.88;0.75;;;;;;;;;;6128924;23;20006;-81
2022/05/17 04:24:45;;;;;;;2.53;1.88;;;;;;;;;;6129147;23;20428;-81
2022/05/17 04:27:13;;;;;;;2.30;1.50;;;;;;;;;;6128934;23;20006;-83
2022/05/17 04:29:41;;;;;;;2.47;2.08;;;;;;;;;;6129046;23;20024;-82
2022/05/17 04:32:10;;;;;;;2.72;2.30;;;;;;;;;;6128828;23;20406;-83
2022/05/17 04:34:35;;;;;;;1.85;1.15;;;;;;;;;;6129172;23;20009;-83
2022/05/17 04:37:00;;;;;;;2.95;2.30;;;;;;;;;;6128304;23;20322;-83
2022/05/17 04:39:26;;;;;;;1.33;1.23;;;;;;;;;;6128827;23;20287;-83
2022/05/17 04:41:51;;;;;;;2.47;1.80;;;;;;;;;;6128635;23;20089;-81
2022/05/17 04:44:16;;;;;;;1.13;1.08;;;;;;;;;;6127204;23;20502;-78
2022/05/17 04:46:42;;;;;;;1.27;1.17;;;;;;;;;;6128852;23;20382;-84
2022/05/17 04:49:09;;;;;;;2.45;1.48;;;;;;;;;;6129318;23;20306;-80
2022/05/17 04:51:37;;;;;;;1.27;1.17;;;;;;;;;;6129001;23;20009;-82
2022/05/17 04:54:02;;;;;;;2.65;1.63;;;;;;;;;;6128304;23;20068;-76
2022/05/17 04:56:28;;;;;;;0.80;0.77;;;;;;;;;;6128787;23;20077;-83
2022/05/17 04:58:56;;;;;;;0.60;0.55;;;;;;;;;;6128768;23;20013;-77
2022/05/17 05:01:24;;;;;;;1.02;0.68;;;;;;;;;;6128401;23;20298;-82
2022/05/17 05:03:51;;;;;;;4.65;2.20;;;;;;;;;;6128782;23;20073;-84
2022/05/17 05:06:17;;;;;;;1.17;1.05;;;;;;;;;;6127275;23;20006;-83
2022/05/17 05:08:42;;;;;;;0.95;0.63;;;;;;;;;;6128621;23;20073;-82
2022/05/17 05:11:07;;;;;;;2.60;2.33;;;;;;;;;;6128478;23;20002;-82
2022/05/17 05:13:35;;;;;;;1.15;0.98;;;;;;;;;;6124759;23;20002;-78
2022/05/17 05:16:00;;;;;;;2.38;1.42;;;;;;;;;;6128167;23;20006;-80
2022/05/17 05:18:28;;;;;;;1.25;1.10;;;;;;;;;;6129000;23;20017;-81
2022/05/17 05:21:12;;;;;;;0.85;0.60;;;;;;;;;;6127357;23;20017;-82
2022/05/17 05:23:41;;;;;;;1.20;1.00;;;;;;;;;;6151153;23;20278;-81
2022/05/17 05:26:07;;;;;;;2.63;1.83;;;;;;;;;;6127129;23;20002;-82
2022/05/17 05:28:38;;;;;;;1.45;1.35;;;;;;;;;;6126956;23;20012;-83
2022/05/17 05:31:06;;;;;;;1.45;1.35;;;;;;;;;;6127954;23;20072;-80
2022/05/17 05:33:39;;;;;;;1.45;1.05;;;;;;;;;;6128380;23;20017;-82
2022/05/17 05:36:04;;;;;;;1.45;1.20;;;;;;;;;;6128505;23;20064;-79
2022/05/17 05:38:35;;;;;;;2.47;1.55;;;;;;;;;;6127132;23;20513;-84
2022/05/17 05:41:02;;;;;;;0.75;0.55;;;;;;;;;;6126694;23;20012;-83
2022/05/17 05:43:30;;;;;;;0.80;0.80;;;;;;;;;;6128614;23;20425;-84
2022/05/17 05:45:56;;;;;;;1.25;1.15;;;;;;;;;;6128210;23;20136;-80
2022/05/17 05:48:21;;;;;;;1.55;1.30;;;;;;;;;;6128471;23;20721;-84
2022/05/17 05:50:47;;;;;;;0.55;0.55;;;;;;;;;;6128405;23;20402;-84
2022/05/17 05:53:13;;;;;;;2.78;1.77;;;;;;;;;;6128490;23;20001;-83
2022/05/17 05:55:41;;;;;;;1.08;1.00;;;;;;;;;;6152768;23;20013;-86
2022/05/17 05:58:07;;;;;;;1.25;0.85;;;;;;;;;;6128857;23;20093;-86
2022/05/17 06:00:36;;;;;;;0.90;0.88;;;;;;;;;;6127160;23;20014;-81
2022/05/17 06:03:04;;;;;;;0.80;0.80;;;;;;;;;;6127060;23;20006;-83
2022/05/17 06:05:31;;;;;;;1.52;1.08;;;;;;;;;;6151368;23;20009;-85
2022/05/17 06:07:59;;;;;;;1.55;1.25;;;;;;;;;;6127509;23;19998;-81
2022/05/17 06:10:28;;;;;;;1.35;1.08;;;;;;;;;;6126454;23;20017;-83
2022/05/17 06:12:53;;;;;;;2.42;1.55;;;;;;;;;;6128198;23;20012;-83
2022/05/17 06:15:21;;;;;;;2.90;1.52;;;;;;;;;;6127073;23;20006;-82
2022/05/17 06:17:47;;;;;;;1.17;1.08;;;;;;;;;;6126921;23;20006;-84
2022/05/17 06:20:17;;;;;;;6.70;1.05;;;;;;;;;;6128031;23;20309;-89
2022/05/17 06:22:45;;;;;;;0.85;0.85;;;;;;;;;;6127542;23;20030;-84
2022/05/17 06:25:11;;;;;;;0.85;0.85;;;;;;;;;;6128102;23;20009;-85
2022/05/17 06:27:39;;;;;;;1.60;1.50;;;;;;;;;;6127798;23;20084;-87
2022/05/17 06:30:05;;;;;;;0.95;0.80;;;;;;;;;;6128192;23;20021;-85
2022/05/17 06:32:33;;;;;;;6.75;1.00;;;;;;;;;;6127453;23;20306;-84
2022/05/17 06:35:01;;;;;;;4.30;1.00;;;;;;;;;;6127373;23;20319;-84
2022/05/17 06:37:26;;;;;;;0.28;0.28;;;;;;;;;;6126243;23;20465;-86
2022/05/17 06:39:52;;;;;;;0.52;0.52;;;;;;;;;;6126999;23;20037;-87
2022/05/17 06:42:17;;;;;;;1.80;1.67;;;;;;;;;;6151380;23;20006;-87
2022/05/17 06:44:47;;;;;;;0.50;0.50;;;;;;;;;;6126578;23;20010;-85
2022/05/17 06:47:13;;;;;;;0.40;0.38;;;;;;;;;;6127613;23;20385;-85
2022/05/17 06:49:40;;;;;;;0.85;0.40;;;;;;;;;;6127369;23;19994;-83
2022/05/17 06:52:09;;;;;;;1.30;1.02;;;;;;;;;;6127857;23;20014;-82
2022/05/17 06:54:35;;;;;;;0.70;0.70;;;;;;;;;;6127309;23;20541;-84
2022/05/17 06:57:06;;;;;;;2.08;1.08;;;;;;;;;;6127148;23;20064;-82
2022/05/17 06:59:32;;;;;;;12.93;1.30;;;;;;;;;;6127498;23;20283;-87
2022/05/17 07:01:59;;;;;;;1.13;0.80;;;;;;;;;;6127837;23;20073;-84
2022/05/17 07:04:27;;;;;;;0.43;0.43;;;;;;;;;;6127775;23;20066;-83
2022/05/17 07:06:56;;;;;;;0.30;0.30;;;;;;;;;;6126741;23;20009;-83
2022/05/17 07:09:25;;;;;;;1.17;0.82;;;;;;;;;;6127867;23;20002;-83
2022/05/17 07:14:43;;;;;;;1.27;1.17;;;;;;;;;;6127572;23;20101;-82
2022/05/17 07:17:18;;;;;;;0.82;0.82;;;;;;;;;;6127812;23;20016;-83
2022/05/17 07:19:45;;;;;;;3.70;0.95;;;;;;;;;;6127159;23;20382;-84
2022/05/17 07:22:34;;;;;;;1.23;0.45;;;;;;;;;;6126716;23;20006;-83
2022/05/17 07:24:59;;;;;;;1.67;0.90;;;;;;;;;;6126629;23;20010;-84
2022/05/17 07:27:24;;;;;;;2.05;1.50;;;;;;;;;;6127100;23;20030;-84
2022/05/17 07:29:52;;;;;;;0.55;0.55;;;;;;;;;;6127562;23;20009;-84
2022/05/17 07:32:19;;;;;;;1.98;0.47;;;;;;;;;;6127553;23;20037;-85
2022/05/17 07:34:46;;;;;;;1.55;0.47;;;;;;;;;;6127295;23;20013;-85
2022/05/17 07:37:11;;;;;;;3.75;1.48;;;;;;;;;;6127373;23;20002;-84
2022/05/17 07:39:36;;;;;;;0.68;0.68;;;;;;;;;;6128057;23;20017;-87
2022/05/17 07:42:06;;;;;;;0.57;0.57;;;;;;;;;;6127675;23;20006;-85
2022/05/17 07:44:36;;;;;;;1.23;0.68;;;;;;;;;;6127047;23;20029;-87
2022/05/17 07:47:02;;;;;;;2.00;1.27;;;;;;;;;;6126652;23;20072;-84
2022/05/17 07:49:30;;;;;;;32.03;1.50;;;;;;;;;;6129902;23;19998;-87
2022/05/17 07:51:58;;;;;;;1.15;0.93;;;;;;;;;;6131046;23;20006;-87
2022/05/17 07:54:23;;;;;;;0.65;0.52;;;;;;;;;;6133315;23;20013;-88
2022/05/17 07:56:51;;;;;;;1.95;0.57;;;;;;;;;;6134703;23;20006;-86
2022/05/17 07:59:16;;;;;;;0.45;0.20;;;;;;;;;;6130742;23;20036;-86
2022/05/17 08:01:46;;;;;;;1.55;0.63;;;;;;;;;;6132144;23;19997;-84
2022/05/17 08:04:12;;;;;;;8.23;1.38;;;;;;;;;;6135932;23;20002;-84
2022/05/17 08:06:42;;;;;;;0.40;0.40;;;;;;;;;;6138917;23;19998;-87
2022/05/17 08:09:10;;;;;;;1.27;0.90;;;;;;;;;;6139445;23;19998;-85
2022/05/17 08:11:40;;;;;;;0.65;0.65;;;;;;;;;;6138726;23;20079;-89
2022/05/17 08:14:05;;;;;;;0.88;0.65;;;;;;;;;;6137957;23;20036;-88
2022/05/17 08:16:31;;;;;;;4.78;1.15;;;;;;;;;;6138489;23;20299;-91
2022/05/17 08:18:56;;;;;;;4.82;1.90;;;;;;;;;;6139617;23;20006;-85
2022/05/17 08:21:24;;;;;;;2.75;2.13;;;;;;;;;;6135064;23;20006;-86
2022/05/17 08:23:56;;;;;;;1.30;0.63;;;;;;;;;;6129447;23;20005;-88
2022/05/17 08:29:05;;;;;;;0.22;0.22;;;;;;;;;;6131692;23;20016;-85
2022/05/17 08:31:30;;;;;;;3.45;1.38;;;;;;;;;;6132121;23;20054;-86
2022/05/17 08:33:56;;;;;;;1.15;0.82;;;;;;;;;;6134183;23;20137;-86
2022/05/17 08:36:21;;;;;;;0.75;0.75;;;;;;;;;;6133732;23;20428;-85
2022/05/17 08:38:51;;;;;;;3.85;1.35;;;;;;;;;;6134335;23;20014;-88
2022/05/17 08:41:19;;;;;;;3.63;1.85;;;;;;;;;;6136321;23;20366;-87
2022/05/17 08:44:00;;;;;;;0.82;0.50;;;;;;;;;;6138521;23;20089;-81
2022/05/17 08:46:46;;;;;;;0.93;0.57;;;;;;;;;;6131297;23;20013;-83
2022/05/17 08:49:29;;;;;;;0.35;0.28;;;;;;;;;;6132286;23;19994;-85
2022/05/17 08:51:57;;;;;;;1.65;0.95;;;;;;;;;;6140646;23;20510;-85
2022/05/17 08:54:34;;;;;;;12.68;1.25;;;;;;;;;;6160018;23;20009;-87
2022/05/17 08:57:36;;;;;;;2.00;1.15;;;;;;;;;;6130065;23;20013;-90
2022/05/17 09:00:06;;;;;;;1.73;1.13;;;;;;;;;;6128162;23;20088;-89
2022/05/17 09:02:42;;;;;;;1.27;0.95;;;;;;;;;;6127273;23;20058;-90
2022/05/17 09:05:13;;;;;;;3.03;1.35;;;;;;;;;;6128235;23;20148;-85
2022/05/17 09:07:51;;;;;;;1.33;1.02;;;;;;;;;;6128257;23;20298;-86
2022/05/17 09:10:50;;;;;;;2.00;0.82;;;;;;;;;;6151981;23;20033;-87
2022/05/17 09:13:35;;;;;;;0.63;0.22;;;;;;;;;;6111385;23;20017;-88
2022/05/17 09:16:04;;;;;;;1.08;1.02;;;;;;;;;;6127811;23;20303;-89
2022/05/17 09:18:32;;;;;;;0.50;0.43;;;;;;;;;;6103486;23;20415;-88
2022/05/17 09:20:58;;;;;;;0.30;0.30;;;;;;;;;;6128762;23;20058;-90
2022/05/17 09:23:23;;;;;;;0.32;0.32;;;;;;;;;;6127212;23;20260;-87
2022/05/17 09:25:58;;;;;;;3.03;1.05;;;;;;;;;;6128365;23;20037;-83
2022/05/17 09:28:31;;;;;;;1.08;0.98;;;;;;;;;;6128666;23;20073;-83
2022/05/17 09:31:15;;;;;;;3.88;1.27;;;;;;;;;;6151579;23;20006;-87
2022/05/17 09:33:41;;;;;;;1.90;0.98;;;;;;;;;;6129565;23;20149;-86
2022/05/17 09:36:08;;;;;;;1.23;0.88;;;;;;;;;;6128802;23;20054;-86
2022/05/17 09:38:38;;;;;;;2.72;1.27;;;;;;;;;;6151876;23;20068;-87
2022/05/17 09:41:11;;;;;;;0.40;0.38;;;;;;;;;;6153066;23;20013;-88
2022/05/17 09:43:52;;;;;;;2.90;1.65;;;;;;;;;;6152358;23;20033;-87
2022/05/17 09:46:34;;;;;;;0.80;0.80;;;;;;;;;;6127955;23;20010;-88
2022/05/17 09:52:35;;;;;;;2.40;1.10;;;;;;;;;;6148631;23;20082;-86
2022/05/17 09:55:21;;;;;;;0.45;0.45;;;;;;;;;;6127801;23;20006;-88
2022/05/17 09:57:55;;;;;;;3.60;0.90;;;;;;;;;;6127837;23;20002;-78
2022/05/17 10:00:27;;;;;;;3.55;1.40;;;;;;;;;;6128054;23;20002;-80
2022/05/17 10:03:34;;;;;;;3.88;1.63;;;;;;;;;;6128569;23;20002;-80
2022/05/17 10:06:05;;;;;;;2.30;1.80;;;;;;;;;;6151789;23;20004;-79
2022/05/17 10:08:33;;;;;;;1.92;1.83;;;;;;;;;;6128603;23;20077;-81
2022/05/17 10:11:22;;;;;;;1.48;0.52;;;;;;;;;;6127627;23;20060;-78
2022/05/17 10:14:04;;;;;;;3.03;1.40;;;;;;;;;;6128414;23;20006;-78
2022/05/17 10:16:49;;;;;;;2.00;1.55;;;;;;;;;;6126888;23;20085;-80
2022/05/17 10:19:26;;;;;;;5.07;1.52;;;;;;;;;;6128177;23;19998;-77
2022/05/17 10:22:20;;;;;;;5.43;0.82;;;;;;;;;;6126882;23;20454;-80
2022/05/17 10:25:02;;;;;;;0.70;0.70;;;;;;;;;;6126052;23;20013;-80
2022/05/17 10:27:30;;;;;;;1.00;0.90;;;;;;;;;;6128272;23;20009;-80
2022/05/17 10:30:00;;;;;;;0.60;0.60;;;;;;;;;;6127975;23;20314;-81
2022/05/17 10:32:38;;;;;;;0.90;0.85;;;;;;;;;;6152254;23;20005;-81
2022/05/17 10:35:25;;;;;;;0.45;0.45;;;;;;;;;;6151423;23;20006;-79
2022/05/17 10:37:56;;;;;;;1.08;1.00;;;;;;;;;;6128277;23;20002;-79
2022/05/17 10:40:34;;;;;;;1.73;1.17;;;;;;;;;;6151142;23;20006;-79
2022/05/17 10:43:05;;;;;;;1.10;0.95;;;;;;;;;;6151327;23;20006;-78
2022/05/17 10:45:36;;;;;;;1.42;0.85;;;;;;;;;;6126517;23;20466;-78
2022/05/17 10:48:23;;;;;;;1.52;1.05;;;;;;;;;;6128047;23;20064;-77
2022/05/17 10:51:11;;;;;;;0.93;0.60;;;;;;;;;;6128250;23;20010;-77
2022/05/17 10:54:07;;;;;;;1.40;1.27;;;;;;;;;;6126377;23;20014;-78
2022/05/17 10:56:45;;;;;;;2.67;1.20;;;;;;;;;;6123066;23;20017;-82
2022/05/17 10:59:32;;;;;;;1.00;0.73;;;;;;;;;;6128026;23;20077;-78
2022/05/17 11:02:03;;;;;;;1.13;1.02;;;;;;;;;;6128101;23;20006;-81
2022/05/17 11:04:57;;;;;;;0.82;0.50;;;;;;;;;;6127747;23;20013;-78
2022/05/17 11:07:50;;;;;;;0.65;0.43;;;;;;;;;;6132231;23;20042;-89
2022/05/17 11:10:24;;;;;;;1.50;0.65;;;;;;;;;;6134903;23;20373;-87
2022/05/17 11:13:05;;;;;;;1.30;0.90;;;;;;;;;;6129037;23;20013;-88
2022/05/17 11:15:35;;;;;;;11.60;0.90;;;;;;;;;;6148948;23;20013;-82
2022/05/17 11:18:13;;;;;;;2.80;0.65;;;;;;;;;;6127190;23;20013;-85
2022/05/17 11:20:45;;;;;;;1.02;0.85;;;;;;;;;;6128944;23;20013;-82
2022/05/17 11:23:32;;;;;;;2.88;0.35;;;;;;;;;;6125616;23;20398;-87
2022/05/17 11:26:31;;;;;;;0.50;0.50;;;;;;;;;;6127212;23;19998;-80
2022/05/17 11:29:24;;;;;;;1.90;0.77;;;;;;;;;;6125996;23;19998;-80
2022/05/17 11:32:00;;;;;;;0.57;0.57;;;;;;;;;;6126383;23;20401;-78
2022/05/17 11:34:26;;;;;;;0.20;0.20;;;;;;;;;;6127213;23;20010;-81
2022/05/17 11:36:59;;;;;;;0.63;0.60;;;;;;;;;;6126649;23;20006;-80
2022/05/17 11:39:31;;;;;;;0.98;0.30;;;;;;;;;;6126077;23;20083;-81
2022/05/17 11:42:10;;;;;;;0.88;0.88;;;;;;;;;;6125425;23;20021;-80
2022/05/17 11:44:47;;;;;;;0.57;0.57;;;;;;;;;;6125868;23;20072;-78
2022/05/17 11:47:29;;;;;;;1.92;1.13;;;;;;;;;;6150838;23;20021;-81
2022/05/17 11:50:18;;;;;;;1.35;0.82;;;;;;;;;;6127345;23;20014;-82
2022/05/17 11:52:47;;;;;;;1.23;0.52;;;;;;;;;;6126106;23;20014;-82
2022/05/17 11:55:17;;;;;;;0.35;0.35;;;;;;;;;;6126132;23;20013;-81
2022/05/17 11:57:49;;;;;;;0.20;0.20;;;;;;;;;;6127225;23;20044;-82
2022/05/17 12:00:39;;;;;;;2.00;0.40;;;;;;;;;;6127203;23;20014;-80
2022/05/17 12:03:04;;;;;;;0.80;0.43;;;;;;;;;;6127048;23;20002;-81
2022/05/17 12:05:42;;;;;;;0.70;0.70;;;;;;;;;;6127110;23;20081;-81
2022/05/17 12:08:29;;;;;;;0.45;0.45;;;;;;;;;;6127530;23;20043;-82
2022/05/17 12:11:05;;;;;;;0.45;0.40;;;;;;;;;;6128025;23;20021;-81
2022/05/17 12:13:36;;;;;;;0.10;0.10;;;;;;;;;;6152669;23;20009;-79
2022/05/17 12:16:09;;;;;;;0.32;0.32;;;;;;;;;;6127882;23;20009;-81
2022/05/17 12:18:48;;;;;;;0.93;0.30;;;;;;;;;;6127679;23;20045;-81
2022/05/17 12:21:57;;;;;;;0.52;0.47;;;;;;;;;;6128692;23;20390;-81
2022/05/17 12:24:45;;;;;;;4.38;1.60;;;;;;;;;;6129136;23;20009;-81
2022/05/17 12:27:32;;;;;;;0.50;0.50;;;;;;;;;;6103439;23;20006;-81
2022/05/17 12:33:29;;;;;;;9.23;1.25;;;;;;;;;;6128974;23;20025;-81
2022/05/17 12:36:11;;;;;;;2.27;1.10;;;;;;;;;;6129394;23;20020;-80
2022/05/17 12:44:19;;;;;;;6.88;1.00;;;;;;;;;;6128977;23;20080;-81
2022/05/17 12:46:45;;;;;;;1.08;0.85;;;;;;;;;;6126163;23;20306;-79
2022/05/17 12:49:26;;;;;;;0.75;0.73;;;;;;;;;;6152310;23;20013;-80
2022/05/17 12:52:14;;;;;;;1.15;1.05;;;;;;;;;;6128068;23;20545;-82
2022/05/17 12:54:40;;;;;;;1.10;0.88;;;;;;;;;;6152420;23;20001;-80
2022/05/17 12:57:18;;;;;;;1.83;0.70;;;;;;;;;;6151991;23;20092;-81
2022/05/17 12:59:44;;;;;;;0.52;0.52;;;;;;;;;;6128834;23;20037;-81
2022/05/17 13:02:09;;;;;;;0.75;0.75;;;;;;;;;;6128446;23;20013;-81
2022/05/17 13:04:37;;;;;;;1.55;0.43;;;;;;;;;;6128618;23;20006;-83
2022/05/17 13:07:13;;;;;;;6.20;1.38;;;;;;;;;;6127380;23;20353;-80
2022/05/17 13:10:05;;;;;;;0.63;0.45;;;;;;;;;;6127582;23;20013;-81
2022/05/17 13:12:36;;;;;;;0.32;0.32;;;;;;;;;;6127518;23;20017;-79
2022/05/17 13:15:09;;;;;;;0.22;0.20;;;;;;;;;;6128396;23;20017;-81
2022/05/17 13:17:38;;;;;;;0.38;0.38;;;;;;;;;;6127666;23;20006;-82
2022/05/17 13:20:13;;;;;;;1.10;0.93;;;;;;;;;;6128209;23;20001;-82
2022/05/17 13:22:43;;;;;;;1.30;0.88;;;;;;;;;;6128514;23;20001;-82
2022/05/17 13:25:14;;;;;;;1.40;0.68;;;;;;;;;;6127191;23;20006;-81
2022/05/17 13:27:44;;;;;;;1.92;0.68;;;;;;;;;;6126838;23;20013;-82
2022/05/17 13:30:30;;;;;;;0.40;0.40;;;;;;;;;;6128571;23;20049;-82
2022/05/17 13:32:58;;;;;;;0.28;0.28;;;;;;;;;;6151950;23;20405;-80
2022/05/17 13:35:23;;;;;;;1.05;0.63;;;;;;;;;;6127469;23;20041;-81
2022/05/17 13:37:59;;;;;;;0.90;0.60;;;;;;;;;;6128223;23;20013;-80
2022/05/17 13:40:43;;;;;;;1.30;0.80;;;;;;;;;;6128483;23;20045;-78
2022/05/17 13:43:36;;;;;;;3.20;0.75;;;;;;;;;;6128498;23;20037;-80
2022/05/17 13:46:20;;;;;;;1.13;0.98;;;;;;;;;;6128119;23;20005;-80
2022/05/17 13:48:51;;;;;;;0.90;0.20;;;;;;;;;;6127674;23;20081;-79
2022/05/17 13:51:19;;;;;;;2.72;1.02;;;;;;;;;;6128441;23;20001;-81
2022/05/17 13:53:49;;;;;;;3.35;0.32;;;;;;;;;;6127170;23;20394;-81
2022/05/17 13:56:14;;;;;;;1.42;1.05;;;;;;;;;;6126672;23;20005;-80
2022/05/17 13:58:47;;;;;;;0.93;0.65;;;;;;;;;;6126527;23;20442;-81
2022/05/17 14:01:35;;;;;;;1.45;0.47;;;;;;;;;;6126210;23;20109;-81
2022/05/17 14:04:03;;;;;;;1.17;0.40;;;;;;;;;;6128015;23;20327;-81
2022/05/17 14:06:44;;;;;;;1.00;0.30;;;;;;;;;;6128370;23;20086;-82
2022/05/17 14:11:55;;;;;;;0.95;0.73;;;;;;;;;;6146996;23;20041;-81
2022/05/17 14:14:23;;;;;;;3.90;0.60;;;;;;;;;;6151476;23;20052;-82
2022/05/17 14:16:55;;;;;;;3.15;0.95;;;;;;;;;;6127085;23;20037;-81
2022/05/17 14:19:22;;;;;;;0.50;0.50;;;;;;;;;;6127882;23;20002;-80
2022/05/17 14:21:56;;;;;;;0.30;0.30;;;;;;;;;;6151242;23;20024;-83
2022/05/17 14:24:24;;;;;;;0.73;0.73;;;;;;;;;;6126957;23;20081;-79
2022/05/17 14:26:54;;;;;;;0.35;0.35;;;;;;;;;;6126706;23;20005;-81
2022/05/17 14:29:21;;;;;;;0.65;0.55;;;;;;;;;;6126625;23;20390;-81
2022/05/17 14:31:46;;;;;;;22.65;2.03;;;;;;;;;;6102399;23;20033;-81
2022/05/17 14:34:16;;;;;;;0.45;0.20;;;;;;;;;;6127129;23;20280;-80
2022/05/17 14:36:42;;;;;;;0.30;0.28;;;;;;;;;;6151666;23;20033;-82
2022/05/17 14:39:10;;;;;;;1.45;0.47;;;;;;;;;;6127543;23;20017;-82
2022/05/17 14:41:36;;;;;;;0.85;0.85;;;;;;;;;;6127477;23;20387;-81
2022/05/17 14:44:02;;;;;;;3.33;0.65;;;;;;;;;;6127245;23;20408;-82
2022/05/17 14:46:27;;;;;;;0.70;0.65;;;;;;;;;;6125738;23;20086;-82
2022/05/17 14:48:56;;;;;;;0.22;0.22;;;;;;;;;;6127097;23;20002;-80
2022/05/17 14:51:24;;;;;;;3.25;1.02;;;;;;;;;;6127760;23;20001;-83
2022/05/17 14:53:49;;;;;;;1.25;0.73;;;;;;;;;;6126504;23;20012;-82
2022/05/17 14:56:20;;;;;;;5.18;1.27;;;;;;;;;;6127563;23;20010;-80
2022/05/17 14:58:46;;;;;;;0.95;0.73;;;;;;;;;;6125592;23;20002;-83
2022/05/17 15:01:13;;;;;;;0.20;0.20;;;;;;;;;;6126981;23;20006;-80
2022/05/17 15:03:52;;;;;;;0.10;0.10;;;;;;;;;;6127143;23;20002;-84
2022/05/17 15:06:20;;;;;;;3.28;0.93;;;;;;;;;;6125873;23;20405;-83
2022/05/17 15:08:46;;;;;;;0.10;0.10;;;;;;;;;;6126433;23;20006;-82
2022/05/17 15:11:14;;;;;;;1.67;0.85;;;;;;;;;;6127674;23;20068;-83
2022/05/17 15:13:40;;;;;;;4.00;0.75;;;;;;;;;;6127539;23;20341;-81
2022/05/17 15:16:09;;;;;;;16.23;0.85;;;;;;;;;;6150897;23;20314;-82
2022/05/17 15:18:40;;;;;;;1.15;0.88;;;;;;;;;;6125825;23;19998;-80
2022/05/17 15:21:06;;;;;;;0.98;0.65;;;;;;;;;;6127649;23;20557;-79
2022/05/17 15:23:38;;;;;;;2.55;0.47;;;;;;;;;;6127272;23;20017;-80
2022/05/17 15:26:05;;;;;;;6.55;0.82;;;;;;;;;;6126036;23;20017;-81
2022/05/17 15:28:34;;;;;;;0.95;0.55;;;;;;;;;;6126759;23;20005;-80